createdAt,value
2022-08-04T00:00:03.360Z,2.67
2022-08-04T00:03:02.571Z,2.53
2022-08-04T00:06:13.334Z,2.60
2022-08-04T00:09:04.458Z,2.70
2022-08-04T00:11:51.416Z,2.80
2022-08-04T00:14:42.364Z,2.58
2022-08-04T00:17:35.360Z,2.80
2022-08-04T00:20:28.369Z,2.83
2022-08-04T00:23:09.499Z,2.72
2022-08-04T00:25:56.362Z,2.78
2022-08-04T00:28:37.319Z,2.80
2022-08-04T00:31:54.109Z,2.70
2022-08-04T00:34:25.445Z,3.03
2022-08-04T00:37:13.367Z,2.85
2022-08-04T00:39:53.471Z,2.72
2022-08-04T00:43:01.387Z,2.75
2022-08-04T00:46:17.295Z,2.58
2022-08-04T00:49:22.445Z,2.67
2022-08-04T00:52:31.805Z,3.13
2022-08-04T00:55:43.389Z,3.47
2022-08-04T00:58:35.482Z,2.95
2022-08-04T01:02:01.383Z,2.75
2022-08-04T01:05:18.387Z,2.58
2022-08-04T01:08:35.398Z,2.60
2022-08-04T01:11:23.383Z,2.75
2022-08-04T01:14:25.579Z,2.88
2022-08-04T01:17:19.479Z,2.88
2022-08-04T01:20:16.399Z,3.15
2022-08-04T01:23:32.390Z,2.95
2022-08-04T01:26:55.100Z,3.47
2022-08-04T01:29:51.383Z,3.13
2022-08-04T01:32:45.422Z,3.70
2022-08-04T01:35:47.695Z,3.28
2022-08-04T01:38:33.678Z,3.30
2022-08-04T01:41:32.266Z,3.55
2022-08-04T01:44:14.710Z,3.45
2022-08-04T01:47:04.408Z,3.13
2022-08-04T01:49:49.137Z,3.03
2022-08-04T01:52:37.396Z,2.90
2022-08-04T01:55:25.427Z,2.92
2022-08-04T01:58:26.488Z,3.03
2022-08-04T02:01:16.455Z,3.08
2022-08-04T02:04:18.126Z,2.95
2022-08-04T02:07:08.547Z,3.58
2022-08-04T02:10:05.401Z,3.33
2022-08-04T02:13:06.415Z,2.90
2022-08-04T02:15:46.470Z,3.25
2022-08-04T02:19:03.411Z,3.25
2022-08-04T02:21:53.404Z,3.20
2022-08-04T02:24:46.446Z,3.50
2022-08-04T02:28:00.160Z,3.60
2022-08-04T02:30:53.433Z,3.63
2022-08-04T02:33:43.491Z,3.60
2022-08-04T02:36:37.439Z,3.53
2022-08-04T02:39:18.558Z,3.33
2022-08-04T02:42:06.417Z,3.40
2022-08-04T02:44:50.548Z,3.80
2022-08-04T02:48:29.477Z,3.70
2022-08-04T02:50:41.826Z,3.28
2022-08-04T02:53:29.423Z,3.35
2022-08-04T02:56:16.434Z,3.67
2022-08-04T02:59:07.441Z,3.80
2022-08-04T03:01:57.043Z,3.30
2022-08-04T03:05:04.429Z,3.67
2022-08-04T03:08:21.430Z,3.63
2022-08-04T03:11:43.488Z,3.75
2022-08-04T03:14:24.505Z,3.80
2022-08-04T03:17:12.588Z,3.60
2022-08-04T03:20:05.814Z,3.50
2022-08-04T03:23:27.445Z,3.50
2022-08-04T03:26:37.509Z,3.58
2022-08-04T03:29:36.418Z,3.70
2022-08-04T03:32:36.519Z,3.75
2022-08-04T03:35:53.477Z,3.97
2022-08-04T03:38:55.714Z,3.70
2022-08-04T03:42:04.125Z,4.15
2022-08-04T03:45:23.511Z,4.05
2022-08-04T03:48:47.458Z,4.00
2022-08-04T03:52:06.489Z,4.22
2022-08-04T03:55:03.160Z,4.60
2022-08-04T03:58:04.456Z,4.28
2022-08-04T04:01:07.477Z,4.63
2022-08-04T04:03:58.463Z,3.72
2022-08-04T04:06:39.757Z,4.88
2022-08-04T04:09:53.870Z,4.30
2022-08-04T04:12:49.693Z,4.10
2022-08-04T04:16:03.495Z,4.55
2022-08-04T04:18:59.815Z,4.32
2022-08-04T04:22:11.534Z,4.05
2022-08-04T04:24:51.731Z,4.18
2022-08-04T04:27:38.488Z,4.15
2022-08-04T04:30:31.641Z,4.63
2022-08-04T04:33:48.483Z,4.57
2022-08-04T04:36:44.153Z,4.60
2022-08-04T04:39:39.493Z,4.45
2022-08-04T04:42:54.464Z,4.85
2022-08-04T04:45:51.477Z,4.55
2022-08-04T04:48:38.484Z,4.90
2022-08-04T04:51:34.142Z,4.32
2022-08-04T04:54:33.494Z,5.05
2022-08-04T04:57:17.802Z,4.75
2022-08-04T05:00:15.499Z,5.03
2022-08-04T05:03:00.431Z,4.47
2022-08-04T05:06:01.505Z,5.43
2022-08-04T05:09:18.493Z,5.15
2022-08-04T05:13:05.074Z,5.03
2022-08-04T05:15:36.003Z,5.03
2022-08-04T05:18:26.490Z,5.15
2022-08-04T05:21:21.517Z,4.78
2022-08-04T05:24:13.494Z,5.65
2022-08-04T05:27:03.550Z,5.30
2022-08-04T05:29:48.559Z,5.35
2022-08-04T05:32:43.507Z,5.20
2022-08-04T05:35:49.782Z,5.53
2022-08-04T05:38:44.525Z,5.68
2022-08-04T05:41:45.969Z,5.45
2022-08-04T05:44:29.067Z,6.07
2022-08-04T05:47:16.532Z,6.18
2022-08-04T05:50:01.868Z,4.78
2022-08-04T05:52:51.529Z,5.18
2022-08-04T05:55:56.635Z,4.90
2022-08-04T05:58:40.538Z,5.65
2022-08-04T06:01:30.578Z,5.68
2022-08-04T06:04:13.445Z,6.57
2022-08-04T06:07:02.529Z,5.55
2022-08-04T06:09:49.501Z,5.18
2022-08-04T06:12:37.663Z,5.70
2022-08-04T06:15:26.522Z,5.68
2022-08-04T06:19:57.767Z,4.43
2022-08-04T06:21:22.524Z,5.20
2022-08-04T06:24:10.536Z,5.00
2022-08-04T06:26:59.541Z,5.05
2022-08-04T06:29:51.642Z,4.38
2022-08-04T06:32:53.558Z,4.90
2022-08-04T06:35:44.588Z,5.28
2022-08-04T06:38:33.555Z,4.78
2022-08-04T06:41:24.530Z,4.50
2022-08-04T06:44:15.555Z,4.72
2022-08-04T06:46:55.616Z,5.10
2022-08-04T06:51:25.896Z,4.75
2022-08-04T06:52:52.551Z,4.53
2022-08-04T06:55:34.391Z,4.97
2022-08-04T06:58:23.572Z,4.28
2022-08-04T07:01:11.549Z,4.70
2022-08-04T07:03:58.575Z,4.82
2022-08-04T07:06:39.127Z,4.90
2022-08-04T07:09:25.539Z,5.32
2022-08-04T07:12:14.564Z,5.65
2022-08-04T07:15:03.563Z,6.68
2022-08-04T07:17:45.475Z,5.97
2022-08-04T07:20:37.066Z,5.93
2022-08-04T07:23:23.137Z,6.38
2022-08-04T07:26:12.693Z,6.97
2022-08-04T07:28:52.891Z,7.15
2022-08-04T07:31:40.567Z,7.40
2022-08-04T07:34:27.556Z,7.38
2022-08-04T07:37:11.645Z,6.88
2022-08-04T07:39:58.690Z,6.88
2022-08-04T07:42:52.567Z,7.05
2022-08-04T07:45:32.584Z,6.53
2022-08-04T07:48:14.581Z,6.32
2022-08-04T07:51:01.587Z,6.75
2022-08-04T07:53:53.985Z,6.35
2022-08-04T07:56:43.576Z,5.93
2022-08-04T07:59:24.763Z,5.80
2022-08-04T08:02:15.598Z,5.88
2022-08-04T08:05:02.588Z,5.38
2022-08-04T08:07:50.685Z,5.93
2022-08-04T08:10:42.601Z,5.35
2022-08-04T08:13:33.214Z,5.22
2022-08-04T08:16:13.346Z,5.47
2022-08-04T08:18:59.592Z,3.80
2022-08-04T08:21:59.281Z,4.30
2022-08-04T08:24:53.582Z,4.00
2022-08-04T08:27:40.585Z,4.75
2022-08-04T08:30:35.719Z,3.85
2022-08-04T08:33:23.589Z,3.80
2022-08-04T08:36:26.608Z,3.45
2022-08-04T08:39:32.676Z,3.53
2022-08-04T08:42:13.682Z,3.22
2022-08-04T08:45:32.601Z,2.97
2022-08-04T08:48:13.679Z,4.78
2022-08-04T08:51:15.599Z,3.60
2022-08-04T08:54:00.685Z,3.35
2022-08-04T08:57:22.785Z,3.38
2022-08-04T09:00:44.611Z,3.40
2022-08-04T09:03:47.270Z,3.10
2022-08-04T09:06:57.619Z,3.25
2022-08-04T09:10:13.119Z,3.22
2022-08-04T09:13:04.627Z,3.45
2022-08-04T09:15:44.898Z,3.40
2022-08-04T09:18:37.604Z,3.83
2022-08-04T09:21:36.649Z,3.30
2022-08-04T09:24:36.543Z,3.22
2022-08-04T09:27:23.095Z,3.42
2022-08-04T09:30:25.621Z,3.53
2022-08-04T09:33:44.684Z,3.17
2022-08-04T09:36:45.732Z,3.17
2022-08-04T09:39:44.506Z,3.10
2022-08-04T09:43:08.749Z,3.10
2022-08-04T09:46:08.797Z,3.03
2022-08-04T09:49:05.661Z,3.20
2022-08-04T09:52:05.636Z,3.38
2022-08-04T09:55:00.819Z,3.40
2022-08-04T09:57:55.643Z,3.05
2022-08-04T10:00:42.243Z,3.15
2022-08-04T10:03:32.747Z,2.92
2022-08-04T10:06:36.699Z,3.30
2022-08-04T10:09:32.185Z,3.03
2022-08-04T10:12:42.665Z,2.80
2022-08-04T10:15:41.666Z,2.97
2022-08-04T10:18:36.667Z,2.90
2022-08-04T10:21:59.362Z,2.70
2022-08-04T10:26:03.263Z,3.03
2022-08-04T10:28:13.102Z,2.72
2022-08-04T10:31:05.667Z,3.15
2022-08-04T10:34:07.680Z,2.58
2022-08-04T10:37:00.665Z,3.00
2022-08-04T10:40:15.819Z,2.83
2022-08-04T10:43:23.098Z,3.08
2022-08-04T10:49:17.669Z,2.70
2022-08-04T10:52:18.668Z,3.40
2022-08-04T10:55:10.750Z,2.88
2022-08-04T10:58:01.715Z,2.83
2022-08-04T11:00:45.760Z,2.90
2022-08-04T11:03:41.677Z,2.88
2022-08-04T11:06:21.766Z,3.05
2022-08-04T11:09:13.970Z,2.72
2022-08-04T11:12:08.730Z,3.00
2022-08-04T11:15:02.707Z,3.13
2022-08-04T11:17:54.700Z,3.47
2022-08-04T11:20:48.710Z,3.00
2022-08-04T11:23:35.893Z,2.95
2022-08-04T11:26:28.720Z,2.97
2022-08-04T11:29:25.690Z,2.67
2022-08-04T11:32:13.887Z,2.50
2022-08-04T11:35:05.714Z,3.33
2022-08-04T11:37:52.229Z,3.05
2022-08-04T11:44:12.749Z,2.60
2022-08-04T11:47:05.724Z,2.85
2022-08-04T11:49:59.718Z,2.63
2022-08-04T11:52:49.731Z,2.88
2022-08-04T11:56:08.100Z,2.88
2022-08-04T11:58:41.319Z,2.67
2022-08-04T12:01:38.707Z,2.65
2022-08-04T12:04:47.385Z,3.00
2022-08-04T12:07:42.860Z,2.95
2022-08-04T12:10:51.763Z,2.92
2022-08-04T12:13:55.279Z,2.22
2022-08-04T12:16:55.761Z,3.20
2022-08-04T12:20:05.286Z,2.70
2022-08-04T12:22:56.751Z,2.83
2022-08-04T12:25:53.736Z,2.90
2022-08-04T12:29:08.420Z,2.85
2022-08-04T12:31:52.785Z,2.43
2022-08-04T12:34:47.764Z,3.38
2022-08-04T12:37:45.882Z,3.03
2022-08-04T12:40:32.690Z,2.67
2022-08-04T12:43:31.765Z,2.40
2022-08-04T12:46:15.822Z,2.42
2022-08-04T12:49:08.762Z,3.05
2022-08-04T12:52:08.066Z,2.90
2022-08-04T12:55:00.818Z,2.85
2022-08-04T12:57:42.830Z,2.47
2022-08-04T13:00:35.427Z,2.53
2022-08-04T13:03:23.984Z,2.42
2022-08-04T13:06:12.778Z,2.60
2022-08-04T13:08:53.857Z,2.83
2022-08-04T13:11:45.771Z,2.45
2022-08-04T13:14:29.031Z,2.33
2022-08-04T13:17:15.767Z,2.60
2022-08-04T13:19:56.933Z,2.97
2022-08-04T13:22:46.567Z,2.50
2022-08-04T13:26:44.708Z,2.92
2022-08-04T13:28:34.795Z,2.70
2022-08-04T13:31:20.073Z,2.72
2022-08-04T13:34:18.926Z,2.40
2022-08-04T13:37:02.794Z,2.55
2022-08-04T13:39:43.897Z,2.63
2022-08-04T13:42:44.817Z,2.40
2022-08-04T13:45:33.831Z,2.83
2022-08-04T13:48:32.427Z,2.40
2022-08-04T13:51:24.815Z,2.45
2022-08-04T13:54:27.167Z,2.50
2022-08-04T13:57:27.815Z,2.30
2022-08-04T14:00:09.652Z,2.28
2022-08-04T14:03:23.085Z,3.03
2022-08-04T14:06:21.154Z,2.38
2022-08-04T14:09:35.843Z,2.40
2022-08-04T14:12:38.388Z,2.35
2022-08-04T14:16:03.620Z,2.30
2022-08-04T14:18:50.844Z,2.30
2022-08-04T14:21:37.947Z,2.38
2022-08-04T14:24:34.813Z,2.42
2022-08-04T14:27:21.976Z,2.28
2022-08-04T14:30:08.843Z,2.50
2022-08-04T14:34:04.583Z,2.53
2022-08-04T14:36:22.481Z,2.45
2022-08-04T14:39:13.912Z,2.17
2022-08-04T14:42:00.831Z,2.10
2022-08-04T14:45:10.843Z,1.80
2022-08-04T14:47:57.850Z,1.70
2022-08-04T14:50:53.913Z,2.25
2022-08-04T14:53:43.852Z,2.65
2022-08-04T14:56:37.812Z,2.30
2022-08-04T14:59:31.847Z,1.90
2022-08-04T15:02:11.974Z,1.85
2022-08-04T15:04:58.881Z,2.50
2022-08-04T15:07:39.916Z,1.95
2022-08-04T15:10:26.846Z,2.00
2022-08-04T15:13:08.926Z,1.80
2022-08-04T15:16:00.985Z,1.95
2022-08-04T15:18:49.301Z,1.75
2022-08-04T15:21:36.879Z,1.70
2022-08-04T15:24:16.919Z,1.45
2022-08-04T15:27:06.862Z,1.80
2022-08-04T15:29:59.734Z,1.48
2022-08-04T15:32:48.539Z,1.63
2022-08-04T15:35:39.137Z,1.67
2022-08-04T15:38:33.858Z,2.17
2022-08-04T15:41:27.877Z,1.52
2022-08-04T15:44:16.900Z,1.75
2022-08-04T15:46:56.984Z,2.08
2022-08-04T15:49:45.878Z,1.95
2022-08-04T15:52:26.152Z,1.90
2022-08-04T15:55:45.904Z,2.05
2022-08-04T15:58:29.965Z,2.20
2022-08-04T16:01:21.963Z,1.65
2022-08-04T16:04:02.053Z,2.00
2022-08-04T16:06:49.902Z,1.55
2022-08-04T16:09:46.089Z,1.67
2022-08-04T16:12:55.229Z,1.63
2022-08-04T16:16:03.374Z,2.10
2022-08-04T16:18:44.587Z,1.65
2022-08-04T16:21:33.897Z,1.80
2022-08-04T16:24:19.308Z,1.98
2022-08-04T16:27:12.896Z,1.60
2022-08-04T16:30:14.314Z,1.92
2022-08-04T16:32:55.545Z,2.35
2022-08-04T16:35:42.434Z,1.88
2022-08-04T16:38:23.003Z,1.70
2022-08-04T16:41:09.910Z,1.70
2022-08-04T16:43:56.960Z,1.80
2022-08-04T16:47:08.910Z,1.88
2022-08-04T16:49:49.499Z,1.98
2022-08-04T16:52:38.936Z,1.65
2022-08-04T16:55:21.478Z,1.60
2022-08-04T16:58:10.937Z,1.50
2022-08-04T17:00:52.316Z,1.80
2022-08-04T17:03:39.948Z,1.70
2022-08-04T17:06:20.363Z,1.90
2022-08-04T17:09:06.947Z,1.70
2022-08-04T17:11:54.959Z,1.70
2022-08-04T17:14:37.036Z,1.90
2022-08-04T17:18:04.012Z,2.30
2022-08-04T17:20:59.388Z,2.90
2022-08-04T17:24:14.479Z,2.10
2022-08-04T17:26:56.986Z,1.95
2022-08-04T17:32:43.948Z,1.98
2022-08-04T17:35:38.473Z,1.50
2022-08-04T17:38:25.953Z,1.63
2022-08-04T17:41:19.475Z,1.85
2022-08-04T17:44:17.669Z,1.77
2022-08-04T17:46:58.333Z,1.85
2022-08-04T17:49:53.227Z,1.92
2022-08-04T17:52:45.339Z,2.13
2022-08-04T17:55:32.031Z,1.73
2022-08-04T17:58:23.154Z,1.80
2022-08-04T18:04:30.000Z,2.00
2022-08-04T18:10:51.809Z,2.10
2022-08-04T18:13:42.973Z,1.90
2022-08-04T18:16:29.993Z,2.00
2022-08-04T18:19:19.623Z,1.80
2022-08-04T18:22:07.355Z,1.73
2022-08-04T18:24:55.807Z,2.20
2022-08-04T18:27:54.024Z,1.92
2022-08-04T18:30:55.035Z,1.85
2022-08-04T18:33:39.939Z,1.95
2022-08-04T18:36:37.284Z,1.80
2022-08-04T18:39:18.616Z,2.17
2022-08-04T18:42:26.112Z,2.08
2022-08-04T18:45:19.996Z,2.35
2022-08-04T18:48:14.438Z,2.08
2022-08-04T18:51:10.953Z,1.92
2022-08-04T18:54:02.020Z,2.03
2022-08-04T18:57:08.593Z,1.80
2022-08-04T18:59:49.031Z,2.13
2022-08-04T19:02:27.438Z,2.05
2022-08-04T19:04:54.199Z,1.73
2022-08-04T19:07:29.686Z,2.10
2022-08-04T19:09:58.180Z,2.10
2022-08-04T19:12:26.739Z,2.10
2022-08-04T19:14:58.327Z,1.95
2022-08-04T19:17:53.856Z,2.03
2022-08-04T19:20:24.140Z,2.08
2022-08-04T19:24:11.269Z,2.17
2022-08-04T19:25:41.690Z,2.38
2022-08-04T19:28:29.274Z,2.00
2022-08-04T19:30:58.025Z,2.05
2022-08-04T19:36:11.697Z,2.25
2022-08-04T19:38:38.492Z,2.40
2022-08-04T19:41:14.381Z,2.22
2022-08-04T19:43:43.600Z,1.98
2022-08-04T19:46:12.175Z,2.95
2022-08-04T19:48:39.734Z,2.22
2022-08-04T19:51:07.763Z,2.33
2022-08-04T19:53:37.986Z,2.63
2022-08-04T19:56:12.185Z,2.65
2022-08-04T19:58:38.807Z,2.67
2022-08-04T20:01:05.539Z,2.50
2022-08-04T20:04:10.152Z,2.83
2022-08-04T20:06:37.930Z,2.70
2022-08-04T20:09:04.698Z,2.38
2022-08-04T20:11:51.367Z,2.70
2022-08-04T20:14:19.628Z,2.60
2022-08-04T20:16:58.947Z,2.92
2022-08-04T20:19:25.787Z,2.88
2022-08-04T20:21:56.360Z,2.78
2022-08-04T20:24:36.785Z,2.70
2022-08-04T20:27:15.379Z,3.30
2022-08-04T20:32:31.127Z,3.53
2022-08-04T20:34:58.705Z,3.20
2022-08-04T20:40:14.634Z,3.78
2022-08-04T20:42:41.536Z,3.38
2022-08-04T20:45:16.246Z,3.67
2022-08-04T20:47:54.124Z,3.45
2022-08-04T20:50:30.255Z,3.63
2022-08-04T20:55:25.400Z,2.85
2022-08-04T20:58:00.843Z,3.67
2022-08-04T21:00:30.668Z,3.30
2022-08-04T21:02:59.164Z,3.35
2022-08-04T21:05:26.564Z,3.45
2022-08-04T21:07:56.743Z,3.30
2022-08-04T21:10:24.775Z,3.70
2022-08-04T21:12:53.219Z,4.25
2022-08-04T21:15:24.635Z,3.40
2022-08-04T21:17:57.529Z,3.88
2022-08-04T21:20:29.522Z,3.40
2022-08-04T21:23:01.573Z,4.05
2022-08-04T21:25:28.557Z,3.72
2022-08-04T21:27:58.501Z,3.90
2022-08-04T21:30:26.359Z,3.60
2022-08-04T21:32:54.927Z,4.40
2022-08-04T21:35:30.126Z,3.67
2022-08-04T21:38:16.624Z,4.20
2022-08-04T21:41:01.531Z,3.90
2022-08-04T21:43:29.944Z,4.10
2022-08-04T21:46:09.490Z,3.63
2022-08-04T21:48:36.078Z,3.92
2022-08-04T21:52:00.656Z,3.72
2022-08-04T21:54:15.234Z,4.13
2022-08-04T21:56:50.909Z,3.80
2022-08-04T21:59:23.782Z,3.80
2022-08-04T22:01:57.918Z,4.03
2022-08-04T22:04:27.075Z,3.90
2022-08-04T22:06:53.760Z,4.07
2022-08-04T22:09:21.900Z,3.92
2022-08-04T22:11:51.002Z,4.47
2022-08-04T22:14:27.159Z,3.80
2022-08-04T22:16:56.489Z,3.35
2022-08-04T22:19:39.600Z,3.70
2022-08-04T22:22:13.649Z,4.43
2022-08-04T22:24:53.119Z,3.58
2022-08-04T22:27:34.984Z,3.83
2022-08-04T22:30:09.285Z,3.17
2022-08-04T22:32:43.334Z,3.53
2022-08-04T22:35:36.471Z,3.45
2022-08-04T22:45:44.326Z,3.60
2022-08-04T22:48:11.670Z,3.15
2022-08-04T22:50:38.427Z,3.92
2022-08-04T22:53:06.509Z,4.03
2022-08-04T22:56:07.693Z,4.00
2022-08-04T22:58:20.065Z,4.18
2022-08-04T23:00:53.099Z,4.10
2022-08-04T23:03:37.191Z,3.85
2022-08-04T23:06:10.875Z,4.07
2022-08-04T23:08:39.281Z,4.18
2022-08-04T23:11:10.317Z,4.05
2022-08-04T23:13:37.590Z,4.05
2022-08-04T23:16:09.996Z,3.88
2022-08-04T23:18:41.893Z,4.38
2022-08-04T23:21:10.507Z,4.22
2022-08-04T23:23:55.305Z,3.95
2022-08-04T23:26:27.720Z,4.65
2022-08-04T23:28:56.039Z,4.15
2022-08-04T23:31:23.144Z,4.05
2022-08-04T23:33:51.033Z,4.45
2022-08-04T23:36:30.004Z,4.35
2022-08-04T23:39:00.564Z,4.32
2022-08-04T23:41:55.393Z,4.30
2022-08-04T23:47:01.345Z,4.88
2022-08-04T23:49:43.519Z,4.75
2022-08-04T23:52:23.529Z,5.00
2022-08-04T23:54:59.151Z,4.43
2022-08-04T23:58:02.052Z,3.90
